Time;durP1;ratioP1;P1;durP2;ratioP2;P2;SDS_P1;SDS_P2;PMS_P1;PMS_P2;Temp;Humidity;BMP_temperature;BMP_pressure;BME280_temperature;BME280_humidity;BME280_pressure;Samples;Min_cycle;Max_cycle;Signal;HPM_P1;HPM_P2
2022/01/15 06:13:42;;;;;;;3.20;2.00;;;;;;;;;;6283117;22;20941;-85
2022/01/15 06:16:08;;;;;;;2.88;1.98;;;;;;;;;;6339320;22;20436;-85
2022/01/15 06:18:33;;;;;;;2.67;1.58;;;;;;;;;;6338209;22;20024;-85
2022/01/15 06:20:59;;;;;;;3.60;1.85;;;;;;;;;;6311367;22;20011;-85
2022/01/15 06:23:24;;;;;;;3.05;1.85;;;;;;;;;;6338979;22;20055;-86
2022/01/15 06:25:49;;;;;;;4.15;2.08;;;;;;;;;;6339230;22;20006;-85
2022/01/15 06:28:15;;;;;;;2.85;2.08;;;;;;;;;;6338920;22;20410;-85
2022/01/15 06:30:40;;;;;;;2.25;1.92;;;;;;;;;;6339238;22;20078;-85
2022/01/15 06:33:06;;;;;;;3.75;1.80;;;;;;;;;;6339192;22;20441;-85
2022/01/15 06:35:31;;;;;;;3.40;1.95;;;;;;;;;;6339284;22;20006;-85
2022/01/15 06:37:57;;;;;;;3.28;1.98;;;;;;;;;;6339138;22;20006;-86
2022/01/15 06:40:22;;;;;;;3.47;2.00;;;;;;;;;;6339269;22;20047;-85
2022/01/15 06:42:47;;;;;;;15.55;3.90;;;;;;;;;;6337560;22;20338;-85
2022/01/15 06:45:13;;;;;;;10.55;3.75;;;;;;;;;;6311417;22;20006;-85
2022/01/15 06:47:39;;;;;;;8.90;3.15;;;;;;;;;;6311505;22;20029;-85
2022/01/15 06:50:06;;;;;;;13.18;3.33;;;;;;;;;;6338910;22;20003;-85
2022/01/15 06:52:37;;;;;;;9.98;2.50;;;;;;;;;;6311553;22;19998;-85
2022/01/15 06:55:09;;;;;;;4.75;1.98;;;;;;;;;;6311423;22;20452;-85
2022/01/15 06:57:34;;;;;;;12.07;4.03;;;;;;;;;;6311303;22;20003;-85
2022/01/15 07:00:01;;;;;;;20.65;2.95;;;;;;;;;;6339011;22;20088;-85
2022/01/15 07:02:27;;;;;;;27.45;4.53;;;;;;;;;;6338854;22;20080;-85
2022/01/15 07:04:52;;;;;;;30.70;4.30;;;;;;;;;;6339092;22;20357;-85
2022/01/15 07:07:18;;;;;;;28.83;4.45;;;;;;;;;;6339078;22;19999;-85
2022/01/15 07:09:43;;;;;;;31.35;4.82;;;;;;;;;;6311328;22;20010;-85
2022/01/15 07:12:09;;;;;;;11.07;2.85;;;;;;;;;;6338907;22;20381;-86
2022/01/15 07:14:35;;;;;;;15.85;4.00;;;;;;;;;;6340715;22;20030;-85
2022/01/15 07:17:00;;;;;;;9.50;3.00;;;;;;;;;;6313419;22;20406;-85
2022/01/15 07:19:26;;;;;;;6.47;3.17;;;;;;;;;;6341020;22;20312;-85
2022/01/15 07:21:51;;;;;;;7.90;2.17;;;;;;;;;;6340893;22;20003;-86
2022/01/15 07:24:17;;;;;;;5.32;2.13;;;;;;;;;;6340818;22;20006;-86
2022/01/15 07:26:43;;;;;;;3.30;2.00;;;;;;;;;;6313105;22;20010;-86
2022/01/15 07:29:14;;;;;;;5.97;2.80;;;;;;;;;;6340861;22;19994;-85
2022/01/15 07:31:41;;;;;;;6.65;2.55;;;;;;;;;;6341010;22;20006;-86
2022/01/15 07:34:06;;;;;;;3.50;2.20;;;;;;;;;;6313076;22;20390;-86
2022/01/15 07:36:32;;;;;;;4.00;2.60;;;;;;;;;;6340552;22;20002;-86
2022/01/15 07:38:57;;;;;;;3.85;2.28;;;;;;;;;;6340286;22;19995;-86
2022/01/15 07:41:23;;;;;;;5.28;2.05;;;;;;;;;;6340556;22;20002;-88
2022/01/15 07:43:49;;;;;;;16.55;4.38;;;;;;;;;;6313178;22;20051;-87
2022/01/15 07:46:14;;;;;;;12.07;3.35;;;;;;;;;;6313743;22;20028;-90
2022/01/15 07:48:39;;;;;;;8.40;3.58;;;;;;;;;;6313419;22;20052;-86
2022/01/15 07:51:05;;;;;;;18.83;4.90;;;;;;;;;;6313144;22;20006;-86
2022/01/15 07:53:31;;;;;;;31.25;7.50;;;;;;;;;;6312910;22;20003;-85
2022/01/15 07:55:57;;;;;;;35.00;5.85;;;;;;;;;;6313122;22;20007;-86
2022/01/15 07:58:22;;;;;;;17.73;4.55;;;;;;;;;;6312975;22;20007;-87
2022/01/15 08:00:48;;;;;;;24.75;6.03;;;;;;;;;;6340477;22;20003;-86
2022/01/15 08:03:13;;;;;;;17.88;3.97;;;;;;;;;;6312248;22;20076;-85
2022/01/15 08:05:39;;;;;;;14.90;4.28;;;;;;;;;;6340704;22;19999;-84
2022/01/15 08:08:04;;;;;;;20.88;3.95;;;;;;;;;;6313072;22;20002;-87
2022/01/15 08:10:30;;;;;;;13.00;4.20;;;;;;;;;;6340615;22;20033;-85
2022/01/15 08:12:55;;;;;;;12.57;3.80;;;;;;;;;;6312942;22;20418;-85
2022/01/15 08:15:22;;;;;;;8.85;4.38;;;;;;;;;;6340260;22;20077;-87
2022/01/15 08:17:48;;;;;;;8.75;4.18;;;;;;;;;;6340489;22;20025;-86
2022/01/15 08:20:14;;;;;;;6.50;3.75;;;;;;;;;;6313146;22;20077;-86
2022/01/15 08:22:40;;;;;;;6.88;4.20;;;;;;;;;;6340532;22;20030;-86
2022/01/15 08:25:07;;;;;;;8.48;4.13;;;;;;;;;;6312128;22;20068;-83
2022/01/15 08:27:33;;;;;;;12.52;4.90;;;;;;;;;;6340213;22;20048;-86
2022/01/15 08:29:58;;;;;;;7.97;4.28;;;;;;;;;;6340294;22;20010;-85
2022/01/15 08:32:23;;;;;;;8.95;5.07;;;;;;;;;;6340294;22;20010;-85
2022/01/15 08:34:49;;;;;;;7.18;4.13;;;;;;;;;;6339953;22;19999;-84
2022/01/15 08:37:15;;;;;;;7.47;3.55;;;;;;;;;;6340152;22;20363;-84
2022/01/15 08:39:40;;;;;;;7.80;4.13;;;;;;;;;;6339958;22;20003;-84
2022/01/15 08:42:07;;;;;;;4.28;3.10;;;;;;;;;;6340838;22;20007;-84
2022/01/15 08:44:34;;;;;;;5.43;3.60;;;;;;;;;;6341348;22;19998;-83
2022/01/15 08:47:02;;;;;;;5.82;3.70;;;;;;;;;;6312858;22;20330;-84
2022/01/15 08:49:28;;;;;;;6.57;3.40;;;;;;;;;;6339969;22;20013;-84
2022/01/15 08:51:53;;;;;;;3.17;2.70;;;;;;;;;;6340140;22;20038;-84
2022/01/15 08:54:19;;;;;;;3.25;2.33;;;;;;;;;;6339810;22;20429;-84
2022/01/15 08:56:44;;;;;;;4.25;2.15;;;;;;;;;;6340251;22;20291;-84
2022/01/15 08:59:09;;;;;;;3.22;2.25;;;;;;;;;;6340365;22;19995;-85
2022/01/15 09:01:35;;;;;;;2.70;2.15;;;;;;;;;;6312687;22;20325;-85
2022/01/15 09:04:00;;;;;;;3.65;2.80;;;;;;;;;;6339984;22;20052;-85
2022/01/15 09:06:27;;;;;;;3.38;2.47;;;;;;;;;;6339561;22;20007;-84
2022/01/15 09:08:53;;;;;;;4.28;2.35;;;;;;;;;;6339998;22;20073;-84
2022/01/15 09:11:19;;;;;;;3.47;2.72;;;;;;;;;;6340147;22;20457;-84
2022/01/15 09:13:44;;;;;;;3.35;2.50;;;;;;;;;;6339780;22;20030;-85
2022/01/15 09:16:10;;;;;;;4.55;2.50;;;;;;;;;;6339786;22;20007;-84
2022/01/15 09:18:37;;;;;;;4.68;2.33;;;;;;;;;;6338343;22;20445;-85
2022/01/15 09:21:03;;;;;;;2.70;2.03;;;;;;;;;;6339753;22;20002;-85
2022/01/15 09:23:28;;;;;;;3.10;2.55;;;;;;;;;;6339484;22;20022;-86
2022/01/15 09:25:54;;;;;;;3.90;2.67;;;;;;;;;;6339885;22;20520;-86
2022/01/15 09:31:03;;;;;;;3.80;2.72;;;;;;;;;;6339889;22;20013;-85
2022/01/15 09:33:29;;;;;;;4.25;2.88;;;;;;;;;;6311753;22;20003;-86
2022/01/15 09:35:54;;;;;;;4.35;2.83;;;;;;;;;;6339263;22;20017;-85
2022/01/15 09:38:21;;;;;;;4.00;2.97;;;;;;;;;;6339550;22;19999;-86
2022/01/15 09:40:47;;;;;;;5.57;4.22;;;;;;;;;;6340802;22;20072;-85
2022/01/15 09:43:14;;;;;;;4.13;3.00;;;;;;;;;;6311471;22;20010;-85
2022/01/15 09:45:40;;;;;;;3.78;2.75;;;;;;;;;;6339754;22;19999;-85
2022/01/15 09:48:07;;;;;;;2.88;2.40;;;;;;;;;;6339316;22;20010;-84
2022/01/15 09:50:38;;;;;;;2.88;2.58;;;;;;;;;;6339319;22;20006;-85
2022/01/15 09:53:03;;;;;;;4.95;3.00;;;;;;;;;;6339749;22;20023;-86
2022/01/15 09:55:29;;;;;;;4.43;2.85;;;;;;;;;;6340533;22;20006;-86
2022/01/15 09:57:55;;;;;;;4.10;2.75;;;;;;;;;;6339502;22;20007;-85
2022/01/15 10:00:23;;;;;;;3.08;2.58;;;;;;;;;;6339421;22;20002;-86
2022/01/15 10:02:52;;;;;;;4.40;2.70;;;;;;;;;;6311653;22;20116;-86
2022/01/15 10:05:18;;;;;;;3.35;2.88;;;;;;;;;;6339645;22;20007;-86
2022/01/15 10:07:59;;;;;;;2.00;1.77;;;;;;;;;;6311785;22;20006;-85
2022/01/15 10:10:27;;;;;;;2.45;2.10;;;;;;;;;;6339381;22;20003;-86
2022/01/15 10:12:53;;;;;;;4.00;2.90;;;;;;;;;;6339164;22;20056;-86
2022/01/15 10:15:19;;;;;;;3.45;2.80;;;;;;;;;;6339108;22;20311;-86
2022/01/15 10:17:44;;;;;;;2.50;2.30;;;;;;;;;;6311183;22;20044;-86
2022/01/15 10:20:16;;;;;;;3.25;2.95;;;;;;;;;;6339140;22;20006;-85
2022/01/15 10:22:44;;;;;;;4.22;2.90;;;;;;;;;;6337723;22;20032;-87
2022/01/15 10:25:14;;;;;;;3.10;2.75;;;;;;;;;;6338958;22;20029;-85
2022/01/15 10:27:41;;;;;;;3.17;2.88;;;;;;;;;;6341079;22;20026;-87
2022/01/15 10:30:16;;;;;;;3.33;3.03;;;;;;;;;;6339415;22;20031;-86
2022/01/15 10:33:02;;;;;;;3.80;3.50;;;;;;;;;;6339523;22;20007;-87
2022/01/15 10:35:31;;;;;;;3.60;3.20;;;;;;;;;;6339300;22;20003;-87
2022/01/15 10:38:00;;;;;;;4.00;3.70;;;;;;;;;;6339289;22;20003;-87
2022/01/15 10:40:47;;;;;;;3.88;3.58;;;;;;;;;;6311534;22;20030;-87
2022/01/15 10:43:16;;;;;;;5.40;3.53;;;;;;;;;;6339082;22;20014;-86
2022/01/15 10:45:56;;;;;;;3.43;3.13;;;;;;;;;;6311495;22;20010;-87
2022/01/15 10:48:26;;;;;;;3.47;3.17;;;;;;;;;;6338652;22;19995;-87
2022/01/15 10:51:03;;;;;;;4.25;3.95;;;;;;;;;;6311209;22;20069;-86
2022/01/15 10:53:40;;;;;;;4.38;3.60;;;;;;;;;;6339049;22;20007;-86
2022/01/15 10:56:08;;;;;;;3.13;2.80;;;;;;;;;;6339417;22;19999;-86
2022/01/15 10:58:34;;;;;;;3.90;3.50;;;;;;;;;;6339364;22;19999;-86
2022/01/15 11:01:00;;;;;;;3.63;3.42;;;;;;;;;;6311569;22;20055;-87
2022/01/15 11:03:38;;;;;;;3.83;3.53;;;;;;;;;;6311492;22;20083;-90
2022/01/15 11:06:05;;;;;;;5.25;4.18;;;;;;;;;;6311721;22;20422;-87
2022/01/15 11:08:34;;;;;;;3.92;3.63;;;;;;;;;;6339235;22;20003;-88
2022/01/15 11:11:06;;;;;;;3.65;3.35;;;;;;;;;;6339102;22;20041;-90
2022/01/15 11:13:37;;;;;;;3.53;3.20;;;;;;;;;;6313580;22;20049;-87
2022/01/15 11:16:07;;;;;;;3.28;2.97;;;;;;;;;;6341791;22;19999;-90
2022/01/15 11:18:39;;;;;;;3.95;3.28;;;;;;;;;;6313806;22;20003;-88
2022/01/15 11:21:10;;;;;;;3.00;2.80;;;;;;;;;;6342280;22;20010;-88
2022/01/15 11:23:39;;;;;;;3.58;3.28;;;;;;;;;;6340559;22;19999;-87
2022/01/15 11:26:10;;;;;;;3.50;3.20;;;;;;;;;;6341107;22;19998;-87
2022/01/15 11:28:36;;;;;;;3.10;2.80;;;;;;;;;;6343464;22;19999;-94
2022/01/15 11:31:05;;;;;;;2.80;2.60;;;;;;;;;;6314880;22;20056;-86
2022/01/15 11:33:33;;;;;;;3.00;2.70;;;;;;;;;;6339093;22;20308;-85
2022/01/15 11:36:00;;;;;;;3.20;2.92;;;;;;;;;;6311211;22;20426;-85
2022/01/15 11:38:46;;;;;;;2.85;2.55;;;;;;;;;;6338953;22;20003;-85
2022/01/15 11:41:26;;;;;;;3.63;2.58;;;;;;;;;;6338634;22;20056;-86
2022/01/15 11:43:59;;;;;;;2.90;2.70;;;;;;;;;;6338900;22;20003;-87
2022/01/15 11:46:33;;;;;;;2.50;2.30;;;;;;;;;;6338861;22;19999;-84
2022/01/15 11:49:23;;;;;;;3.50;2.60;;;;;;;;;;6338690;22;20414;-85
2022/01/15 11:52:13;;;;;;;3.55;3.25;;;;;;;;;;6338445;22;20429;-86
2022/01/15 11:54:41;;;;;;;3.92;3.03;;;;;;;;;;6308057;22;20007;-88
2022/01/15 11:57:23;;;;;;;3.10;2.80;;;;;;;;;;6310849;22;20003;-87
2022/01/15 12:00:20;;;;;;;2.75;2.50;;;;;;;;;;6311962;22;20052;-88
2022/01/15 12:03:13;;;;;;;6.70;4.97;;;;;;;;;;6340238;22;20093;-89
2022/01/15 12:05:42;;;;;;;3.35;3.05;;;;;;;;;;6337714;22;20002;-91
2022/01/15 12:08:08;;;;;;;3.30;2.72;;;;;;;;;;6313789;22;20071;-90
2022/01/15 12:10:49;;;;;;;2.67;2.45;;;;;;;;;;6341471;22;20003;-95
2022/01/15 12:13:24;;;;;;;3.47;2.78;;;;;;;;;;6313098;22;20448;-88
2022/01/15 12:16:13;;;;;;;3.05;2.80;;;;;;;;;;6312903;22;20015;-89
2022/01/15 12:18:49;;;;;;;4.53;3.70;;;;;;;;;;6313187;22;20006;-86
2022/01/15 12:21:46;;;;;;;4.45;3.20;;;;;;;;;;6313478;22;20002;-85
2022/01/15 12:24:41;;;;;;;4.07;3.67;;;;;;;;;;6312712;22;20334;-86
2022/01/15 12:27:10;;;;;;;4.78;3.47;;;;;;;;;;6340434;22;20003;-85
2022/01/15 12:29:39;;;;;;;4.57;3.60;;;;;;;;;;6344263;22;19999;-85
2022/01/15 12:32:05;;;;;;;4.63;3.60;;;;;;;;;;6341057;22;20005;-89
2022/01/15 12:34:31;;;;;;;5.93;4.53;;;;;;;;;;6312629;22;20394;-87
2022/01/15 12:36:56;;;;;;;7.75;4.68;;;;;;;;;;6340447;22;20005;-87
2022/01/15 12:39:36;;;;;;;6.47;4.60;;;;;;;;;;6340215;22;20006;-86
2022/01/15 12:42:04;;;;;;;5.60;4.60;;;;;;;;;;6313611;22;20007;-86
2022/01/15 12:44:29;;;;;;;9.43;5.43;;;;;;;;;;6312549;22;19998;-87
2022/01/15 12:46:58;;;;;;;10.13;7.65;;;;;;;;;;6312457;22;20003;-87
2022/01/15 12:49:36;;;;;;;8.35;5.68;;;;;;;;;;6340481;22;20013;-86
2022/01/15 12:52:28;;;;;;;6.10;4.72;;;;;;;;;;6340557;22;20044;-87
2022/01/15 12:54:57;;;;;;;5.82;4.68;;;;;;;;;;6310763;22;20017;-86
2022/01/15 12:57:43;;;;;;;7.18;5.57;;;;;;;;;;6312767;22;20486;-86
2022/01/15 13:00:18;;;;;;;3.65;2.70;;;;;;;;;;6312543;22;20013;-86
2022/01/15 13:02:43;;;;;;;5.40;4.07;;;;;;;;;;6339998;22;20010;-86
2022/01/15 13:05:12;;;;;;;3.70;2.70;;;;;;;;;;6339802;22;19999;-86
2022/01/15 13:08:12;;;;;;;5.15;3.58;;;;;;;;;;6340153;22;20311;-86
2022/01/15 13:10:49;;;;;;;15.82;7.63;;;;;;;;;;6305290;22;20017;-87
2022/01/15 13:13:23;;;;;;;8.27;5.00;;;;;;;;;;6312140;22;20014;-86
2022/01/15 13:16:12;;;;;;;6.30;3.10;;;;;;;;;;6306984;22;20034;-86
2022/01/15 13:18:41;;;;;;;3.08;2.53;;;;;;;;;;6304462;22;20000;-86
2022/01/15 13:21:12;;;;;;;3.47;2.50;;;;;;;;;;6308108;22;20000;-86
2022/01/15 13:23:47;;;;;;;6.45;2.60;;;;;;;;;;6308468;22;20000;-85
2022/01/15 13:26:15;;;;;;;3.92;2.78;;;;;;;;;;6310197;22;19995;-85
2022/01/15 13:28:41;;;;;;;3.30;2.17;;;;;;;;;;6308406;22;20012;-87
2022/01/15 13:31:10;;;;;;;5.00;3.58;;;;;;;;;;6333221;22;20007;-88
2022/01/15 13:33:39;;;;;;;3.28;2.47;;;;;;;;;;6308388;22;19999;-87
2022/01/15 13:36:10;;;;;;;2.60;2.33;;;;;;;;;;6308772;22;20000;-85
2022/01/15 13:38:38;;;;;;;3.47;2.80;;;;;;;;;;6308521;22;20006;-85
2022/01/15 13:41:14;;;;;;;4.25;2.92;;;;;;;;;;6332767;22;20418;-85
2022/01/15 13:43:41;;;;;;;5.13;2.83;;;;;;;;;;6332914;22;20014;-86
2022/01/15 13:46:08;;;;;;;4.78;3.05;;;;;;;;;;6308001;22;20087;-85
2022/01/15 13:48:34;;;;;;;5.60;3.05;;;;;;;;;;6308380;22;20023;-86
2022/01/15 13:53:49;;;;;;;8.82;5.68;;;;;;;;;;6308294;22;20041;-85
2022/01/15 13:56:36;;;;;;;7.80;4.72;;;;;;;;;;6308335;22;20029;-85
2022/01/15 13:59:03;;;;;;;4.93;3.05;;;;;;;;;;6308168;22;20418;-84
2022/01/15 14:01:35;;;;;;;5.43;2.53;;;;;;;;;;6308409;22;20004;-89
2022/01/15 14:04:25;;;;;;;3.60;2.63;;;;;;;;;;6307992;22;19999;-85
2022/01/15 14:06:52;;;;;;;4.00;2.28;;;;;;;;;;6308198;22;20433;-85
2022/01/15 14:09:18;;;;;;;4.82;2.35;;;;;;;;;;6333486;22;20011;-86
2022/01/15 14:12:05;;;;;;;4.40;2.20;;;;;;;;;;6332861;22;20498;-85
2022/01/15 14:15:03;;;;;;;4.20;2.28;;;;;;;;;;6320952;22;20323;-85
2022/01/15 14:17:29;;;;;;;2.78;2.45;;;;;;;;;;6311449;22;20021;-85
2022/01/15 14:22:28;;;;;;;4.57;2.78;;;;;;;;;;6345931;22;20008;-85
2022/01/15 14:25:18;;;;;;;4.18;3.00;;;;;;;;;;6338945;22;20051;-85
2022/01/15 14:27:44;;;;;;;;;;;;;;;;;;6339688;22;20006;-84
2022/01/15 14:30:13;;;;;;;3.75;2.58;;;;;;;;;;6339588;22;19918;-94
2022/01/15 14:32:38;;;;;;;4.18;2.72;;;;;;;;;;6293212;22;20085;-96
2022/01/15 14:35:07;;;;;;;2.00;1.80;;;;;;;;;;6315164;22;20002;-95
2022/01/15 14:37:34;;;;;;;2.87;1.90;;;;;;;;;;6313971;22;19995;-93
2022/01/15 14:40:02;;;;;;;2.78;2.05;;;;;;;;;;6313313;22;20059;-91
2022/01/15 14:42:27;;;;;;;4.35;2.75;;;;;;;;;;6312434;22;20071;-90
2022/01/15 14:44:54;;;;;;;3.13;2.42;;;;;;;;;;6312373;22;20030;-91
2022/01/15 14:47:19;;;;;;;5.43;2.17;;;;;;;;;;6338735;22;20003;-91
2022/01/15 14:49:48;;;;;;;2.90;2.38;;;;;;;;;;6311630;22;20010;-89
2022/01/15 14:52:14;;;;;;;4.57;2.40;;;;;;;;;;6313594;22;20003;-89
2022/01/15 14:54:39;;;;;;;2.05;1.80;;;;;;;;;;6312242;22;20085;-90
2022/01/15 14:57:05;;;;;;;3.03;2.03;;;;;;;;;;6311968;22;20083;-89
2022/01/15 14:59:31;;;;;;;3.50;2.08;;;;;;;;;;6312123;22;20010;-89
2022/01/15 15:01:57;;;;;;;4.53;1.70;;;;;;;;;;6311463;22;20056;-89
2022/01/15 15:04:22;;;;;;;3.58;2.20;;;;;;;;;;6312283;22;20094;-90
2022/01/15 15:06:48;;;;;;;2.88;2.13;;;;;;;;;;6339229;22;20034;-90
2022/01/15 15:09:13;;;;;;;3.22;2.08;;;;;;;;;;6311932;22;20601;-91
2022/01/15 15:11:39;;;;;;;4.35;1.80;;;;;;;;;;6312052;22;20007;-90
2022/01/15 15:14:05;;;;;;;5.28;2.03;;;;;;;;;;6312211;22;20423;-90
2022/01/15 15:16:31;;;;;;;4.88;2.58;;;;;;;;;;6315198;22;20042;-91
2022/01/15 15:18:57;;;;;;;10.10;2.75;;;;;;;;;;6342980;22;20005;-92
2022/01/15 15:21:22;;;;;;;6.60;2.35;;;;;;;;;;6315202;22;20026;-91
2022/01/15 15:23:49;;;;;;;7.63;2.65;;;;;;;;;;6313284;22;20048;-90
2022/01/15 15:26:15;;;;;;;6.72;2.70;;;;;;;;;;6339435;22;20029;-90
2022/01/15 15:28:42;;;;;;;6.90;2.72;;;;;;;;;;6339672;22;20059;-90
2022/01/15 15:31:09;;;;;;;4.20;2.20;;;;;;;;;;6339609;22;20010;-89
2022/01/15 15:33:36;;;;;;;3.47;3.08;;;;;;;;;;6312869;22;20329;-90
2022/01/15 15:36:02;;;;;;;5.07;2.85;;;;;;;;;;6341597;22;20074;-89
2022/01/15 15:38:29;;;;;;;3.42;2.70;;;;;;;;;;6313788;22;20009;-89
2022/01/15 15:40:55;;;;;;;7.93;2.90;;;;;;;;;;6313431;22;20433;-90
2022/01/15 15:43:20;;;;;;;5.75;3.63;;;;;;;;;;6340960;22;20065;-90
2022/01/15 15:45:46;;;;;;;5.28;3.50;;;;;;;;;;6341388;22;19998;-88
2022/01/15 15:48:12;;;;;;;7.10;3.10;;;;;;;;;;6341042;22;20402;-90
2022/01/15 15:50:37;;;;;;;5.88;3.55;;;;;;;;;;6313502;22;20006;-88
2022/01/15 15:53:03;;;;;;;6.25;3.67;;;;;;;;;;6340609;22;20026;-89
2022/01/15 15:55:29;;;;;;;4.60;3.33;;;;;;;;;;6313298;22;20005;-88
2022/01/15 15:57:54;;;;;;;5.85;3.60;;;;;;;;;;6313373;22;20083;-89
2022/01/15 16:00:22;;;;;;;4.95;3.47;;;;;;;;;;6339388;22;20002;-89
2022/01/15 16:02:49;;;;;;;4.43;3.42;;;;;;;;;;6340892;22;20011;-89
2022/01/15 16:05:15;;;;;;;5.72;3.85;;;;;;;;;;6341897;22;20034;-89
2022/01/15 16:07:41;;;;;;;8.77;3.30;;;;;;;;;;6314101;22;20007;-89
2022/01/15 16:10:07;;;;;;;6.90;3.22;;;;;;;;;;6312975;22;20472;-89
2022/01/15 16:12:33;;;;;;;4.85;3.47;;;;;;;;;;6313683;22;20352;-90
2022/01/15 16:14:59;;;;;;;7.97;3.58;;;;;;;;;;6312858;22;20018;-86
2022/01/15 16:17:26;;;;;;;5.18;3.83;;;;;;;;;;6340386;22;20430;-89
2022/01/15 16:19:52;;;;;;;5.35;3.03;;;;;;;;;;6313275;22;20003;-88
2022/01/15 16:22:18;;;;;;;5.28;4.07;;;;;;;;;;6313148;22;20441;-90
2022/01/15 16:24:43;;;;;;;9.00;4.00;;;;;;;;;;6340212;22;20005;-89
2022/01/15 16:27:09;;;;;;;6.28;3.92;;;;;;;;;;6341510;22;20074;-88
2022/01/15 16:29:35;;;;;;;7.93;3.80;;;;;;;;;;6340923;22;20414;-89
2022/01/15 16:32:02;;;;;;;8.52;4.05;;;;;;;;;;6340784;22;20002;-88
2022/01/15 16:34:28;;;;;;;7.57;4.03;;;;;;;;;;6340534;22;20422;-90
2022/01/15 16:36:55;;;;;;;8.65;4.63;;;;;;;;;;6313126;22;20009;-90
2022/01/15 16:39:21;;;;;;;595.38;282.85;;;;;;;;;;6313071;22;20086;-90
2022/01/15 16:41:47;;;;;;;196.02;82.40;;;;;;;;;;6313279;22;20063;-92
2022/01/15 16:44:13;;;;;;;22.27;10.35;;;;;;;;;;6312520;22;20085;-90
2022/01/15 16:46:38;;;;;;;39.53;17.77;;;;;;;;;;6312803;22;20007;-90
2022/01/15 16:49:04;;;;;;;14.30;7.18;;;;;;;;;;6340344;22;20452;-87
2022/01/15 16:51:30;;;;;;;8.55;4.75;;;;;;;;;;6312723;22;20006;-88
2022/01/15 16:53:56;;;;;;;8.20;4.60;;;;;;;;;;6340253;22;19995;-90
2022/01/15 16:56:21;;;;;;;9.38;4.78;;;;;;;;;;6340596;22;19999;-90
2022/01/15 16:58:47;;;;;;;6.68;4.20;;;;;;;;;;6313197;22;20484;-91
2022/01/15 17:01:14;;;;;;;6.93;4.25;;;;;;;;;;6312637;22;20018;-90
2022/01/15 17:03:40;;;;;;;7.13;4.28;;;;;;;;;;6312970;22;20005;-90
2022/01/15 17:06:09;;;;;;;8.18;4.80;;;;;;;;;;6339042;22;20307;-90
2022/01/15 17:08:35;;;;;;;9.05;4.20;;;;;;;;;;6313281;22;20479;-89
2022/01/15 17:11:01;;;;;;;6.15;3.90;;;;;;;;;;6341723;22;19998;-90
2022/01/15 17:13:27;;;;;;;7.25;3.80;;;;;;;;;;6340985;22;20079;-88
2022/01/15 17:15:53;;;;;;;5.72;3.70;;;;;;;;;;6312241;22;20022;-87
2022/01/15 17:18:19;;;;;;;9.57;4.40;;;;;;;;;;6340019;22;19999;-88
2022/01/15 17:20:45;;;;;;;9.25;4.70;;;;;;;;;;6339571;22;20044;-86
2022/01/15 17:23:10;;;;;;;8.63;4.28;;;;;;;;;;6311602;22;20003;-87
2022/01/15 17:25:36;;;;;;;7.65;4.28;;;;;;;;;;6339653;22;20002;-86
2022/01/15 17:28:05;;;;;;;11.73;5.50;;;;;;;;;;6312252;22;20003;-84
2022/01/15 17:30:31;;;;;;;14.25;6.35;;;;;;;;;;6340033;22;20002;-83
2022/01/15 17:32:57;;;;;;;38.97;14.68;;;;;;;;;;6339444;22;19999;-85
2022/01/15 17:35:23;;;;;;;31.13;12.02;;;;;;;;;;6339580;22;20010;-85
2022/01/15 17:37:48;;;;;;;22.50;9.65;;;;;;;;;;6312019;22;20010;-85
2022/01/15 17:40:14;;;;;;;19.50;9.27;;;;;;;;;;6339854;22;20003;-86
2022/01/15 17:42:40;;;;;;;17.58;8.27;;;;;;;;;;6339643;22;20045;-85
2022/01/15 17:45:05;;;;;;;14.57;7.00;;;;;;;;;;6311804;22;20094;-86
2022/01/15 17:47:31;;;;;;;17.70;7.40;;;;;;;;;;6339781;22;20006;-84
2022/01/15 17:49:57;;;;;;;14.20;7.13;;;;;;;;;;6339388;22;20022;-83
2022/01/15 17:52:25;;;;;;;11.23;6.18;;;;;;;;;;6311836;22;20010;-85
2022/01/15 17:54:51;;;;;;;11.88;5.93;;;;;;;;;;6339509;22;20065;-83
2022/01/15 17:57:16;;;;;;;10.00;5.47;;;;;;;;;;6339539;22;20095;-86
2022/01/15 17:59:42;;;;;;;10.57;5.22;;;;;;;;;;6339757;22;19999;-85
2022/01/15 18:02:07;;;;;;;9.65;5.07;;;;;;;;;;6339434;22;20017;-85
2022/01/15 18:04:33;;;;;;;10.23;4.60;;;;;;;;;;6339842;22;20044;-85
2022/01/15 18:06:58;;;;;;;8.45;5.22;;;;;;;;;;6311597;22;20034;-85
2022/01/15 18:09:31;;;;;;;8.77;4.60;;;;;;;;;;6339621;22;19999;-84
2022/01/15 18:11:58;;;;;;;7.78;4.50;;;;;;;;;;6311660;22;20007;-85
2022/01/15 18:14:24;;;;;;;10.88;5.47;;;;;;;;;;6339130;22;20041;-85
2022/01/15 18:16:49;;;;;;;9.60;5.63;;;;;;;;;;6339090;22;20010;-84
2022/01/15 18:19:15;;;;;;;7.97;5.35;;;;;;;;;;6339284;22;20002;-82
2022/01/15 18:21:42;;;;;;;9.50;5.15;;;;;;;;;;6339553;22;19995;-83
2022/01/15 18:24:10;;;;;;;8.52;4.85;;;;;;;;;;6311478;22;20056;-84
2022/01/15 18:26:35;;;;;;;12.35;5.10;;;;;;;;;;6311393;22;20002;-84
2022/01/15 18:29:01;;;;;;;10.93;5.68;;;;;;;;;;6339298;22;20326;-83
2022/01/15 18:31:26;;;;;;;12.77;6.18;;;;;;;;;;6339178;22;20002;-83
2022/01/15 18:33:53;;;;;;;9.32;6.35;;;;;;;;;;6339120;22;20059;-85
2022/01/15 18:36:20;;;;;;;9.88;5.10;;;;;;;;;;6339118;22;20009;-85
2022/01/15 18:38:46;;;;;;;7.93;5.57;;;;;;;;;;6339221;22;19994;-83
2022/01/15 18:41:11;;;;;;;8.82;5.57;;;;;;;;;;6339271;22;20014;-84
2022/01/15 18:43:37;;;;;;;12.40;6.82;;;;;;;;;;6339364;22;20303;-86
2022/01/15 18:46:02;;;;;;;10.90;7.88;;;;;;;;;;6339156;22;20006;-84
2022/01/15 18:48:28;;;;;;;17.73;11.55;;;;;;;;;;6339309;22;20010;-84
2022/01/15 18:50:53;;;;;;;26.95;14.13;;;;;;;;;;6339784;22;20009;-84
2022/01/15 18:53:19;;;;;;;137.38;65.72;;;;;;;;;;6311375;22;20003;-84
2022/01/15 18:55:45;;;;;;;31.27;17.45;;;;;;;;;;6339355;22;20002;-85
2022/01/15 18:58:11;;;;;;;23.80;14.82;;;;;;;;;;6339324;22;20006;-85
2022/01/15 19:00:37;;;;;;;21.27;13.32;;;;;;;;;;6339079;22;19995;-85
2022/01/15 19:03:03;;;;;;;24.42;14.30;;;;;;;;;;6338999;22;20003;-85
2022/01/15 19:05:28;;;;;;;30.92;19.23;;;;;;;;;;6311019;22;20013;-85
2022/01/15 19:07:54;;;;;;;27.35;20.20;;;;;;;;;;6339179;22;20002;-84
2022/01/15 19:10:20;;;;;;;18.08;12.93;;;;;;;;;;6341097;22;20002;-85
2022/01/15 19:12:45;;;;;;;16.75;11.52;;;;;;;;;;6341130;22;20334;-85
2022/01/15 19:15:14;;;;;;;15.60;10.27;;;;;;;;;;6341403;22;20013;-85
2022/01/15 19:17:40;;;;;;;21.73;12.35;;;;;;;;;;6341140;22;20417;-84
2022/01/15 19:20:09;;;;;;;24.83;14.15;;;;;;;;;;6341106;22;19999;-88
2022/01/15 19:22:34;;;;;;;18.15;11.65;;;;;;;;;;6341678;22;20002;-84
2022/01/15 19:25:00;;;;;;;23.75;14.52;;;;;;;;;;6313165;22;20075;-85
2022/01/15 19:27:25;;;;;;;25.13;15.07;;;;;;;;;;6341045;22;19995;-85
2022/01/15 19:29:51;;;;;;;19.50;12.77;;;;;;;;;;6313357;22;20003;-85
2022/01/15 19:32:17;;;;;;;21.55;13.32;;;;;;;;;;6313215;22;20007;-85
2022/01/15 19:34:43;;;;;;;25.90;12.93;;;;;;;;;;6341093;22;20002;-87
2022/01/15 19:37:08;;;;;;;18.70;12.45;;;;;;;;;;6341415;22;20003;-87
2022/01/15 19:39:34;;;;;;;16.65;11.85;;;;;;;;;;6313422;22;20437;-86
2022/01/15 19:41:59;;;;;;;19.92;13.07;;;;;;;;;;6340976;22;20005;-86
2022/01/15 19:44:25;;;;;;;19.27;12.85;;;;;;;;;;6341382;22;19999;-86
2022/01/15 19:46:51;;;;;;;20.95;13.57;;;;;;;;;;6313643;22;20051;-86
2022/01/15 19:49:17;;;;;;;18.58;13.38;;;;;;;;;;6314115;22;19998;-86
2022/01/15 19:51:42;;;;;;;22.83;14.00;;;;;;;;;;6341158;22;20033;-86
2022/01/15 19:54:08;;;;;;;21.83;12.88;;;;;;;;;;6340871;22;20329;-86
2022/01/15 19:56:33;;;;;;;21.95;13.90;;;;;;;;;;6313219;22;20007;-86
2022/01/15 19:58:59;;;;;;;24.58;13.65;;;;;;;;;;6313223;22;19999;-86
2022/01/15 20:01:26;;;;;;;18.83;12.18;;;;;;;;;;6340637;22;19999;-86
2022/01/15 20:03:51;;;;;;;16.90;11.65;;;;;;;;;;6340728;22;20105;-86
2022/01/15 20:06:17;;;;;;;19.80;12.55;;;;;;;;;;6340675;22;19999;-86
2022/01/15 20:08:42;;;;;;;21.92;13.65;;;;;;;;;;6313090;22;20081;-85
2022/01/15 20:11:08;;;;;;;23.83;13.57;;;;;;;;;;6340747;22;20338;-86
2022/01/15 20:13:33;;;;;;;18.48;13.02;;;;;;;;;;6340504;22;20005;-86
2022/01/15 20:15:59;;;;;;;22.10;13.45;;;;;;;;;;6312868;22;20003;-86
2022/01/15 20:18:28;;;;;;;21.70;12.35;;;;;;;;;;6313219;22;20368;-86
2022/01/15 20:20:55;;;;;;;24.27;12.93;;;;;;;;;;6340735;22;19999;-86
2022/01/15 20:23:22;;;;;;;21.25;12.98;;;;;;;;;;6340740;22;20329;-86
2022/01/15 20:25:49;;;;;;;17.92;12.55;;;;;;;;;;6313176;22;20013;-86
2022/01/15 20:28:19;;;;;;;16.85;11.93;;;;;;;;;;6340671;22;20006;-86
2022/01/15 20:30:45;;;;;;;19.15;12.07;;;;;;;;;;6340548;22;20006;-86
2022/01/15 20:33:11;;;;;;;16.38;10.50;;;;;;;;;;6340581;22;20003;-86
2022/01/15 20:35:37;;;;;;;14.63;10.32;;;;;;;;;;6340700;22;20481;-86
2022/01/15 20:38:03;;;;;;;17.60;10.02;;;;;;;;;;6340923;22;20018;-84
2022/01/15 20:40:29;;;;;;;17.48;11.65;;;;;;;;;;6340994;22;20003;-85
2022/01/15 20:42:57;;;;;;;18.35;12.65;;;;;;;;;;6312695;22;20390;-86
2022/01/15 20:45:26;;;;;;;37.92;22.02;;;;;;;;;;6340390;22;20002;-86
2022/01/15 20:47:54;;;;;;;71.57;35.33;;;;;;;;;;6340972;22;20016;-85
2022/01/15 20:50:21;;;;;;;42.40;25.80;;;;;;;;;;6340691;22;20007;-85
2022/01/15 20:52:47;;;;;;;29.63;16.58;;;;;;;;;;6313421;22;19999;-85
2022/01/15 20:55:13;;;;;;;24.05;14.20;;;;;;;;;;6341464;22;20025;-85
2022/01/15 20:57:44;;;;;;;18.02;11.63;;;;;;;;;;6340232;22;19999;-85
2022/01/15 21:00:12;;;;;;;19.48;10.88;;;;;;;;;;6340465;22;20417;-85
2022/01/15 21:02:37;;;;;;;17.08;10.63;;;;;;;;;;6340470;22;20334;-85